HECA/CAI METAR and TAF weather

Enter ICAO airport designator
Station Type Date Time Source
HECA METAR 2020/06/06 12:30 UTC NOAA

HECA 061230Z 05009KT CAVOK 34/07 Q1010 NOSIG


Station Type Date Time Source
HECA Decoded METAR 2020/06/06 12:30 UTC NOAA

Cairo Airport, Egypt (HECA) 30-08N 031-24E 74M
Jun 06, 2020 - 08:30 AM EDT / 2020.06.06 1230 UTC
Wind: from the NE (050 degrees) at 10 MPH (9 KT):0
Visibility: greater than 7 mile(s):0
Temperature: 93 F (34 C)
Dew Point: 44 F (7 C)
Relative Humidity: 18%
Pressure (altimeter): 29.83 in. Hg (1010 hPa)
ob: HECA 061230Z 05009KT CAVOK 34/07 Q1010 NOSIG
cycle: 12

Station Type Date Time Source
HECA TAF 2020/06/06 12:40 UTC NOAA

TAF HECA 061100Z 0612/0718 07008KT CAVOK

Example: see airport list